createdAt,value
2023-03-28T00:00:30.402Z,102388.34
2023-03-28T00:02:59.575Z,102378.06
2023-03-28T00:05:28.191Z,102378.78
2023-03-28T00:07:56.715Z,102379.66
2023-03-28T00:10:24.890Z,102378.78
2023-03-28T00:12:52.642Z,102385.75
2023-03-28T00:15:20.447Z,102380.41
2023-03-28T00:17:48.266Z,102389.16
2023-03-28T00:20:17.895Z,102384.72
2023-03-28T00:22:45.657Z,102383.94
2023-03-28T00:25:13.432Z,102390.88
2023-03-28T00:27:41.329Z,102390.88
2023-03-28T00:30:10.930Z,102396.91
2023-03-28T00:32:38.689Z,102389.97
2023-03-28T00:35:07.459Z,102396.09
2023-03-28T00:37:36.548Z,102394.50
2023-03-28T00:40:07.416Z,102399.72
2023-03-28T00:42:35.186Z,102396.25
2023-03-28T00:45:02.883Z,102392.75
2023-03-28T00:47:37.891Z,102393.66
2023-03-28T00:50:10.942Z,102395.38
2023-03-28T00:52:42.784Z,102385.91
2023-03-28T00:55:14.823Z,102371.13
2023-03-28T00:57:42.971Z,102377.19
2023-03-28T01:00:12.749Z,102384.19
2023-03-28T01:02:42.489Z,102379.88
2023-03-28T01:05:10.925Z,102389.41
2023-03-28T01:07:45.431Z,102395.56
2023-03-28T01:10:13.914Z,102386.84
2023-03-28T01:12:42.557Z,102390.34
2023-03-28T01:15:11.537Z,102392.09
2023-03-28T01:17:41.450Z,102400.84
2023-03-28T01:20:37.042Z,102394.81
2023-03-28T01:23:35.458Z,102390.56
2023-03-28T01:26:32.217Z,102392.28
2023-03-28T01:29:24.658Z,102395.88
2023-03-28T01:32:13.270Z,102388.00
2023-03-28T01:34:53.531Z,102393.25
2023-03-28T01:37:32.623Z,102395.06
2023-03-28T01:40:30.104Z,102390.94
2023-03-28T01:43:11.273Z,102396.28
2023-03-28T01:45:45.439Z,102393.69
2023-03-28T01:48:19.046Z,102386.69
2023-03-28T01:50:49.504Z,102384.22
2023-03-28T01:53:23.598Z,102386.78
2023-03-28T01:55:54.412Z,102387.59
2023-03-28T01:58:26.199Z,102388.44
2023-03-28T02:00:59.453Z,102379.78
2023-03-28T02:03:29.718Z,102386.75
2023-03-28T02:05:58.608Z,102380.56
2023-03-28T02:08:30.390Z,102375.28
2023-03-28T02:10:58.452Z,102385.75
2023-03-28T02:13:29.400Z,102366.56
2023-03-28T02:15:59.009Z,102373.53
2023-03-28T02:18:29.831Z,102368.28
2023-03-28T02:21:00.949Z,102378.69
2023-03-28T02:23:32.803Z,102372.59
2023-03-28T02:26:00.683Z,102374.41
2023-03-28T02:28:29.021Z,102377.03
2023-03-28T02:30:56.719Z,102373.56
2023-03-28T02:33:35.060Z,102365.94
2023-03-28T02:36:12.316Z,102373.72
2023-03-28T02:38:46.408Z,102378.09
2023-03-28T02:41:21.002Z,102383.38
2023-03-28T02:43:55.558Z,102380.84
2023-03-28T02:46:37.771Z,102385.28
2023-03-28T02:49:27.986Z,102381.88
2023-03-28T02:52:10.914Z,102383.63
2023-03-28T02:54:44.943Z,102381.97
2023-03-28T02:57:16.592Z,102388.91
2023-03-28T02:59:48.061Z,102379.34
2023-03-28T03:02:17.452Z,102381.09
2023-03-28T03:04:45.521Z,102373.28
2023-03-28T03:07:13.866Z,102371.59
2023-03-28T03:09:45.897Z,102379.44
2023-03-28T03:12:13.764Z,102365.63
2023-03-28T03:14:42.155Z,102374.31
2023-03-28T03:17:09.882Z,102376.94
2023-03-28T03:19:37.573Z,102374.38
2023-03-28T03:22:05.182Z,102379.59
2023-03-28T03:24:34.595Z,102379.69
2023-03-28T03:27:03.819Z,102380.59
2023-03-28T03:29:38.253Z,102375.38
2023-03-28T03:32:07.115Z,102376.22
2023-03-28T03:34:36.747Z,102373.56
2023-03-28T03:37:04.600Z,102380.50
2023-03-28T03:39:32.307Z,102373.56
2023-03-28T03:42:00.044Z,102384.88
2023-03-28T03:44:29.789Z,102376.22
2023-03-28T03:46:57.944Z,102384.00
2023-03-28T03:49:25.763Z,102385.72
2023-03-28T03:51:53.554Z,102383.97
2023-03-28T03:54:21.290Z,102384.00
2023-03-28T03:56:49.098Z,102384.00
2023-03-28T03:59:17.199Z,102387.53
2023-03-28T04:01:46.394Z,102379.72
2023-03-28T04:04:14.173Z,102377.19
2023-03-28T04:06:41.913Z,102381.53
2023-03-28T04:09:09.879Z,102381.53
2023-03-28T04:11:37.543Z,102385.88
2023-03-28T04:14:05.393Z,102391.09
2023-03-28T04:16:40.934Z,102394.56
2023-03-28T04:19:13.877Z,102398.94
2023-03-28T04:21:42.867Z,102404.91
2023-03-28T04:24:15.340Z,102401.44
2023-03-28T04:26:43.187Z,102404.84
2023-03-28T04:29:11.272Z,102414.41
2023-03-28T04:31:39.857Z,102403.91
2023-03-28T04:34:08.841Z,102405.66
2023-03-28T04:36:41.019Z,102413.56
2023-03-28T04:39:08.973Z,102404.88
2023-03-28T04:41:36.732Z,102411.81
2023-03-28T04:44:04.460Z,102396.28
2023-03-28T04:46:32.190Z,102399.69
2023-03-28T04:48:59.922Z,102396.28
2023-03-28T04:51:28.629Z,102411.03
2023-03-28T04:53:57.770Z,102417.19
2023-03-28T04:56:25.751Z,102422.31
2023-03-28T04:58:53.518Z,102412.72
2023-03-28T05:01:22.623Z,102422.25
2023-03-28T05:03:50.595Z,102422.25
2023-03-28T05:06:18.635Z,102423.97
2023-03-28T05:08:46.347Z,102411.84
2023-03-28T05:11:15.442Z,102428.44
2023-03-28T05:13:43.154Z,102422.41
2023-03-28T05:16:10.931Z,102430.19
2023-03-28T05:18:38.650Z,102427.63
2023-03-28T05:21:07.243Z,102425.06
2023-03-28T05:23:34.934Z,102425.91
2023-03-28T05:26:02.967Z,102427.63
2023-03-28T05:28:32.441Z,102428.47
2023-03-28T05:31:00.387Z,102427.63
2023-03-28T05:33:28.199Z,102431.88
2023-03-28T05:35:55.903Z,102424.06
2023-03-28T05:38:23.644Z,102428.53
2023-03-28T05:40:51.346Z,102428.53
2023-03-28T05:43:19.025Z,102438.09
2023-03-28T05:45:48.973Z,102435.50
2023-03-28T05:48:16.743Z,102434.66
2023-03-28T05:50:45.558Z,102454.66
2023-03-28T05:53:13.244Z,102450.31
2023-03-28T05:55:40.933Z,102447.69
2023-03-28T05:58:08.702Z,102447.69
2023-03-28T06:00:37.175Z,102445.06
2023-03-28T06:03:07.485Z,102445.97
2023-03-28T06:05:35.772Z,102439.00
2023-03-28T06:08:03.540Z,102437.38
2023-03-28T06:10:31.486Z,102443.44
2023-03-28T06:12:59.158Z,102447.09
2023-03-28T06:15:27.281Z,102453.13
2023-03-28T06:17:55.119Z,102454.91
2023-03-28T06:20:24.152Z,102460.13
2023-03-28T06:22:52.160Z,102459.22
2023-03-28T06:25:19.864Z,102466.28
2023-03-28T06:27:47.569Z,102462.84
2023-03-28T06:30:16.077Z,102463.72
2023-03-28T06:32:43.873Z,102457.66
2023-03-28T06:35:11.692Z,102455.97
2023-03-28T06:37:40.862Z,102463.81
2023-03-28T06:40:09.751Z,102460.25
2023-03-28T06:42:37.547Z,102461.13
2023-03-28T06:45:06.043Z,102473.28
2023-03-28T06:47:33.801Z,102467.97
2023-03-28T06:50:01.643Z,102475.75
2023-03-28T06:52:29.498Z,102472.28
2023-03-28T06:54:58.942Z,102467.88
2023-03-28T06:57:26.739Z,102471.19
2023-03-28T06:59:54.467Z,102473.72
2023-03-28T07:02:22.320Z,102482.41
2023-03-28T07:04:50.094Z,102476.25
2023-03-28T07:07:17.777Z,102467.34
2023-03-28T07:09:45.653Z,102472.41
2023-03-28T07:12:14.702Z,102479.19
2023-03-28T07:14:44.557Z,102483.44
2023-03-28T07:17:12.457Z,102482.28
2023-03-28T07:19:40.232Z,102484.00
2023-03-28T07:22:07.942Z,102479.47
2023-03-28T07:24:35.600Z,102476.66
2023-03-28T07:27:14.800Z,102474.75
2023-03-28T07:29:44.385Z,102476.31
2023-03-28T07:32:12.334Z,102477.03
2023-03-28T07:34:40.080Z,102472.47
2023-03-28T07:37:08.908Z,102470.66
2023-03-28T07:39:39.856Z,102470.66
2023-03-28T07:42:11.000Z,102467.13
2023-03-28T07:44:40.313Z,102471.25
2023-03-28T07:47:11.731Z,102478.88
2023-03-28T07:49:39.597Z,102481.38
2023-03-28T07:52:07.440Z,102478.56
2023-03-28T07:54:35.255Z,102478.31
2023-03-28T07:57:03.049Z,102481.53
2023-03-28T07:59:30.905Z,102481.47
2023-03-28T08:01:58.651Z,102486.50
2023-03-28T08:04:27.800Z,102489.81
2023-03-28T08:06:56.130Z,102482.63
2023-03-28T08:09:23.887Z,102494.72
2023-03-28T08:11:51.605Z,102487.59
2023-03-28T08:14:19.602Z,102496.19
2023-03-28T08:16:47.493Z,102495.16
2023-03-28T08:19:15.373Z,102487.97
2023-03-28T08:21:44.736Z,102485.22
2023-03-28T08:24:19.559Z,102486.75
2023-03-28T08:26:53.523Z,102487.38
2023-03-28T08:29:21.739Z,102486.00
2023-03-28T08:31:49.580Z,102483.09
2023-03-28T08:34:17.401Z,102479.28
2023-03-28T08:36:47.413Z,102485.13
2023-03-28T08:39:15.399Z,102481.34
2023-03-28T08:42:11.495Z,102481.06
2023-03-28T08:44:48.631Z,102484.31
2023-03-28T08:47:18.771Z,102478.84
2023-03-28T08:49:48.417Z,102487.41
2023-03-28T08:52:20.214Z,102482.00
2023-03-28T08:54:51.897Z,102481.97
2023-03-28T08:57:22.046Z,102476.50
2023-03-28T08:59:53.517Z,102478.78
2023-03-28T09:02:22.804Z,102466.31
2023-03-28T09:04:50.842Z,102483.41
2023-03-28T09:07:26.568Z,102481.56
2023-03-28T09:10:04.205Z,102471.91
2023-03-28T09:12:40.886Z,102479.00
2023-03-28T09:15:20.624Z,102483.56
2023-03-28T09:18:01.882Z,102471.34
2023-03-28T09:20:33.778Z,102472.97
2023-03-28T09:23:13.920Z,102470.22
2023-03-28T09:25:44.469Z,102462.19
2023-03-28T09:28:24.797Z,102456.56
2023-03-28T09:30:53.357Z,102464.28
2023-03-28T09:33:25.660Z,102468.50
2023-03-28T09:35:57.175Z,102466.09
2023-03-28T09:38:30.711Z,102460.75
2023-03-28T09:41:00.174Z,102457.91
2023-03-28T09:43:32.464Z,102455.81
2023-03-28T09:46:03.209Z,102456.47
2023-03-28T09:48:33.103Z,102445.97
2023-03-28T09:51:02.620Z,102448.41
2023-03-28T09:53:33.522Z,102444.56
2023-03-28T09:56:05.111Z,102451.97
2023-03-28T09:58:49.899Z,102448.19
2023-03-28T10:01:32.978Z,102449.00
2023-03-28T10:04:01.372Z,102447.38
2023-03-28T10:06:30.974Z,102447.88
2023-03-28T10:09:18.336Z,102444.63
2023-03-28T10:11:49.765Z,102443.78
2023-03-28T10:14:33.628Z,102445.59
2023-03-28T10:17:06.296Z,102441.19
2023-03-28T10:19:35.987Z,102432.28
2023-03-28T10:22:06.486Z,102444.41
2023-03-28T10:24:37.160Z,102449.03
2023-03-28T10:27:18.188Z,102438.63
2023-03-28T10:29:46.703Z,102430.69
2023-03-28T10:32:15.579Z,102435.69
2023-03-28T10:34:43.230Z,102434.06
2023-03-28T10:37:24.786Z,102426.31
2023-03-28T10:40:06.802Z,102420.13
2023-03-28T10:42:42.491Z,102416.44
2023-03-28T10:45:21.205Z,102426.09
2023-03-28T10:47:50.700Z,102414.03
2023-03-28T10:50:24.185Z,102424.56
2023-03-28T10:52:55.608Z,102418.41
2023-03-28T10:55:27.399Z,102421.06
2023-03-28T10:58:01.014Z,102418.34
2023-03-28T11:00:32.576Z,102412.25
2023-03-28T11:03:16.470Z,102403.44
2023-03-28T11:06:05.654Z,102396.34
2023-03-28T11:08:43.032Z,102398.03
2023-03-28T11:11:29.238Z,102384.91
2023-03-28T11:14:01.640Z,102376.91
2023-03-28T11:16:39.494Z,102378.16
2023-03-28T11:19:15.002Z,102379.41
2023-03-28T11:21:46.245Z,102377.44
2023-03-28T11:24:23.344Z,102365.13
2023-03-28T11:27:12.414Z,102366.31
2023-03-28T11:29:45.988Z,102356.38
2023-03-28T11:32:19.462Z,102352.69
2023-03-28T11:34:56.084Z,102348.06
2023-03-28T11:37:27.883Z,102346.28
2023-03-28T11:39:58.309Z,102345.44
2023-03-28T11:42:30.013Z,102341.50
2023-03-28T11:45:02.857Z,102316.75
2023-03-28T11:47:34.069Z,102317.03
2023-03-28T11:50:05.389Z,102308.72
2023-03-28T11:52:36.851Z,102312.78
2023-03-28T11:55:07.908Z,102310.81
2023-03-28T11:57:40.220Z,102292.41
2023-03-28T12:00:26.731Z,102308.63
2023-03-28T12:03:09.958Z,102291.78
2023-03-28T12:05:40.532Z,102298.31
2023-03-28T12:08:12.541Z,102287.06
2023-03-28T12:10:43.291Z,102289.53
2023-03-28T12:13:16.143Z,102286.59
2023-03-28T12:15:47.895Z,102282.38
2023-03-28T12:18:19.063Z,102281.41
2023-03-28T12:20:51.234Z,102268.28
2023-03-28T12:23:23.896Z,102275.97
2023-03-28T12:25:55.880Z,102269.69
2023-03-28T12:28:28.425Z,102262.16
2023-03-28T12:31:06.112Z,102258.13
2023-03-28T12:33:44.611Z,102253.66
2023-03-28T12:36:18.574Z,102238.81
2023-03-28T12:38:50.034Z,102241.53
2023-03-28T12:41:20.737Z,102250.75
2023-03-28T12:43:52.416Z,102238.81
2023-03-28T12:46:23.887Z,102243.31
2023-03-28T12:48:54.804Z,102238.72
2023-03-28T12:51:25.488Z,102236.66
2023-03-28T12:54:02.826Z,102233.78
2023-03-28T12:56:30.742Z,102223.63
2023-03-28T12:58:59.979Z,102221.00
2023-03-28T13:01:33.273Z,102219.31
2023-03-28T13:04:07.580Z,102219.50
2023-03-28T13:06:43.771Z,102220.53
2023-03-28T13:09:27.380Z,102217.72
2023-03-28T13:11:57.612Z,102204.56
2023-03-28T13:14:36.365Z,102202.56
2023-03-28T13:17:17.252Z,102198.16
2023-03-28T13:19:52.295Z,102202.19
2023-03-28T13:22:29.209Z,102204.81
2023-03-28T13:25:21.145Z,102201.38
2023-03-28T13:27:49.579Z,102195.97
2023-03-28T13:30:20.402Z,102196.66
2023-03-28T13:32:50.983Z,102184.59
2023-03-28T13:35:46.337Z,102180.16
2023-03-28T13:38:25.251Z,102176.53
2023-03-28T13:40:55.849Z,102168.47
2023-03-28T13:43:26.082Z,102170.56
2023-03-28T13:45:58.745Z,102170.38
2023-03-28T13:48:31.551Z,102157.38
2023-03-28T13:51:00.845Z,102164.44
2023-03-28T13:53:46.543Z,102158.16
2023-03-28T13:56:23.325Z,102154.44
2023-03-28T13:58:52.738Z,102157.00
2023-03-28T14:01:25.810Z,102147.31
2023-03-28T14:03:55.151Z,102139.47
2023-03-28T14:06:24.630Z,102139.63
2023-03-28T14:08:53.586Z,102145.06
2023-03-28T14:11:24.312Z,102138.25
2023-03-28T14:14:02.781Z,102139.63
2023-03-28T14:16:32.005Z,102138.72
2023-03-28T14:19:02.261Z,102139.31
2023-03-28T14:21:29.976Z,102141.00
2023-03-28T14:23:59.454Z,102131.66
2023-03-28T14:26:28.789Z,102120.72
2023-03-28T14:29:01.163Z,102121.06
2023-03-28T14:31:32.085Z,102128.34
2023-03-28T14:34:00.223Z,102130.19
2023-03-28T14:36:31.120Z,102122.97
2023-03-28T14:39:13.292Z,102119.50
2023-03-28T14:41:43.092Z,102096.72
2023-03-28T14:44:13.087Z,102099.81
2023-03-28T14:46:42.289Z,102095.69
2023-03-28T14:49:19.401Z,102081.31
2023-03-28T14:51:48.596Z,102080.69
2023-03-28T14:54:17.541Z,102081.88
2023-03-28T14:56:45.941Z,102070.50
2023-03-28T14:59:17.858Z,102064.69
2023-03-28T15:01:47.959Z,102061.13
2023-03-28T15:04:15.939Z,102056.03
2023-03-28T15:06:43.721Z,102055.34
2023-03-28T15:09:12.890Z,102044.09
2023-03-28T15:11:43.558Z,102032.88
2023-03-28T15:14:15.702Z,102023.19
2023-03-28T15:16:45.657Z,102025.47
2023-03-28T15:19:19.193Z,102018.94
2023-03-28T15:21:53.938Z,102007.53
2023-03-28T15:24:21.962Z,102012.75
2023-03-28T15:26:53.766Z,102008.25
2023-03-28T15:29:22.689Z,102009.94
2023-03-28T15:31:50.645Z,102005.75
2023-03-28T15:34:24.786Z,101993.78
2023-03-28T15:36:54.380Z,101987.66
2023-03-28T15:39:25.512Z,101981.78
2023-03-28T15:41:55.668Z,101989.88
2023-03-28T15:44:28.283Z,101984.13
2023-03-28T15:46:58.640Z,101981.50
2023-03-28T15:49:28.258Z,101968.16
2023-03-28T15:51:57.356Z,101956.69
2023-03-28T15:54:31.502Z,101958.38
2023-03-28T15:57:02.525Z,101964.78
2023-03-28T15:59:33.990Z,101956.88
2023-03-28T16:02:32.438Z,101952.69
2023-03-28T16:05:02.738Z,101954.56
2023-03-28T16:07:34.476Z,101962.56
2023-03-28T16:10:02.139Z,101947.91
2023-03-28T16:12:29.898Z,101950.78
2023-03-28T16:14:57.730Z,101938.63
2023-03-28T16:17:26.395Z,101937.63
2023-03-28T16:19:54.204Z,101930.41
2023-03-28T16:22:23.350Z,101939.06
2023-03-28T16:24:52.310Z,101932.97
2023-03-28T16:27:20.884Z,101922.50
2023-03-28T16:29:48.809Z,101922.66
2023-03-28T16:32:17.103Z,101925.38
2023-03-28T16:34:45.531Z,101921.91
2023-03-28T16:37:13.216Z,101919.16
2023-03-28T16:39:42.225Z,101918.31
2023-03-28T16:42:09.995Z,101920.88
2023-03-28T16:44:37.746Z,101915.69
2023-03-28T16:47:05.715Z,101915.53
2023-03-28T16:49:33.412Z,101913.66
2023-03-28T16:52:01.096Z,101901.44
2023-03-28T16:54:28.799Z,101892.72
2023-03-28T16:56:57.924Z,101895.31
2023-03-28T16:59:25.822Z,101891.03
2023-03-28T17:01:53.820Z,101890.19
2023-03-28T17:04:21.556Z,101901.56
2023-03-28T17:06:49.282Z,101890.19
2023-03-28T17:09:17.007Z,101895.47
2023-03-28T17:11:44.748Z,101894.78
2023-03-28T17:14:13.835Z,101888.59
2023-03-28T17:16:41.872Z,101893.09
2023-03-28T17:19:09.625Z,101881.75
2023-03-28T17:21:37.491Z,101881.09
2023-03-28T17:24:09.088Z,101890.59
2023-03-28T17:26:36.770Z,101889.09
2023-03-28T17:29:07.278Z,101880.41
2023-03-28T17:31:37.460Z,101876.06
2023-03-28T17:34:05.504Z,101872.50
2023-03-28T17:36:34.756Z,101875.91
2023-03-28T17:39:03.310Z,101872.50
2023-03-28T17:41:31.545Z,101874.38
2023-03-28T17:43:59.878Z,101868.34
2023-03-28T17:46:28.004Z,101868.53
2023-03-28T17:48:57.184Z,101865.09
2023-03-28T17:51:25.171Z,101862.56
2023-03-28T17:53:53.260Z,101865.28
2023-03-28T17:56:21.056Z,101863.72
2023-03-28T17:58:48.737Z,101845.38
2023-03-28T18:01:18.433Z,101847.94
2023-03-28T18:03:46.842Z,101848.88
2023-03-28T18:06:16.008Z,101844.63
2023-03-28T18:08:44.671Z,101847.16
2023-03-28T18:11:14.573Z,101843.59
2023-03-28T18:13:43.225Z,101845.28
2023-03-28T18:16:13.485Z,101839.03
2023-03-28T18:18:41.496Z,101843.44
2023-03-28T18:21:11.132Z,101835.56
2023-03-28T18:23:40.391Z,101820.41
2023-03-28T18:26:08.327Z,101820.31
2023-03-28T18:28:36.873Z,101813.38
2023-03-28T18:31:08.815Z,101817.59
2023-03-28T18:33:36.584Z,101809.69
2023-03-28T18:36:04.671Z,101803.59
2023-03-28T18:38:36.909Z,101808.09
2023-03-28T18:41:08.256Z,101810.06
2023-03-28T18:43:36.159Z,101812.84
2023-03-28T18:46:04.592Z,101812.00
2023-03-28T18:48:32.661Z,101812.00
2023-03-28T18:51:01.606Z,101813.69
2023-03-28T18:53:29.956Z,101804.84
2023-03-28T18:55:57.750Z,101812.00
2023-03-28T18:58:27.145Z,101810.13
2023-03-28T19:00:59.300Z,101811.16
2023-03-28T19:03:27.768Z,101812.19
2023-03-28T19:05:57.342Z,101803.53
2023-03-28T19:08:26.371Z,101812.00
2023-03-28T19:10:54.315Z,101815.66
2023-03-28T19:13:22.208Z,101815.66
2023-03-28T19:16:00.270Z,101812.31
2023-03-28T19:18:28.557Z,101815.06
2023-03-28T19:20:58.662Z,101816.06
2023-03-28T19:23:28.053Z,101802.91
2023-03-28T19:25:56.111Z,101801.13
2023-03-28T19:28:24.219Z,101796.63
2023-03-28T19:30:59.162Z,101789.41
2023-03-28T19:33:26.985Z,101788.47
2023-03-28T19:35:54.860Z,101778.03
2023-03-28T19:38:23.166Z,101781.56
2023-03-28T19:40:52.192Z,101782.47
2023-03-28T19:43:23.678Z,101775.47
2023-03-28T19:45:51.388Z,101775.66
2023-03-28T19:48:20.508Z,101766.06
2023-03-28T19:50:50.134Z,101775.81
2023-03-28T19:53:17.888Z,101769.00
2023-03-28T19:55:52.235Z,101769.97
2023-03-28T19:58:20.021Z,101769.19
2023-03-28T20:00:48.757Z,101762.56
2023-03-28T20:03:19.392Z,101767.31
2023-03-28T20:05:49.530Z,101763.97
2023-03-28T20:08:18.318Z,101764.91
2023-03-28T20:10:47.850Z,101764.16
2023-03-28T20:13:16.096Z,101756.25
2023-03-28T20:15:45.715Z,101757.94
2023-03-28T20:18:19.804Z,101756.16
2023-03-28T20:20:51.947Z,101757.00
2023-03-28T20:23:22.146Z,101756.25
2023-03-28T20:25:49.848Z,101751.31
2023-03-28T20:28:17.534Z,101759.31
2023-03-28T20:30:46.389Z,101765.59
2023-03-28T20:33:14.238Z,101771.34
2023-03-28T20:35:42.693Z,101778.63
2023-03-28T20:38:11.852Z,101760.34
2023-03-28T20:40:41.083Z,101765.16
2023-03-28T20:43:09.990Z,101758.38
2023-03-28T20:45:38.890Z,101751.09
2023-03-28T20:48:09.726Z,101767.88
2023-03-28T20:50:41.374Z,101759.41
2023-03-28T20:53:10.952Z,101758.00
2023-03-28T20:55:38.881Z,101764.25
2023-03-28T20:58:06.860Z,101755.69
2023-03-28T21:00:35.758Z,101759.84
2023-03-28T21:03:03.760Z,101760.56
2023-03-28T21:05:31.720Z,101764.97
2023-03-28T21:08:00.315Z,101758.00
2023-03-28T21:10:29.884Z,101748.66
2023-03-28T21:12:57.568Z,101747.94
2023-03-28T21:15:27.302Z,101742.16
2023-03-28T21:17:55.027Z,101737.19
2023-03-28T21:20:22.728Z,101735.50
2023-03-28T21:22:50.807Z,101731.22
2023-03-28T21:25:19.137Z,101731.94
2023-03-28T21:27:48.288Z,101723.25
2023-03-28T21:30:16.606Z,101721.44
2023-03-28T21:32:44.310Z,101716.16
2023-03-28T21:35:15.221Z,101700.72
2023-03-28T21:37:43.110Z,101705.03
2023-03-28T21:40:11.329Z,101705.03
2023-03-28T21:42:39.149Z,101713.09
2023-03-28T21:45:09.526Z,101709.00
2023-03-28T21:47:38.138Z,101704.88
2023-03-28T21:50:07.389Z,101710.22
2023-03-28T21:52:35.531Z,101699.03
2023-03-28T21:55:03.372Z,101704.22
2023-03-28T21:57:31.108Z,101699.63
2023-03-28T21:59:58.813Z,101707.50
2023-03-28T22:02:27.926Z,101699.81
2023-03-28T22:04:55.673Z,101707.78
2023-03-28T22:07:23.396Z,101707.06
2023-03-28T22:09:51.074Z,101712.56
2023-03-28T22:12:22.795Z,101712.88
2023-03-28T22:14:50.675Z,101705.97
2023-03-28T22:17:18.552Z,101705.97
2023-03-28T22:19:47.625Z,101710.44
2023-03-28T22:22:17.827Z,101711.56
2023-03-28T22:24:46.026Z,101708.84
2023-03-28T22:27:14.190Z,101690.66
2023-03-28T22:29:42.184Z,101693.63
2023-03-28T22:32:10.482Z,101672.44
2023-03-28T22:34:38.121Z,101672.44
2023-03-28T22:37:07.212Z,101663.63
2023-03-28T22:39:34.933Z,101663.63
2023-03-28T22:42:02.697Z,101667.03
2023-03-28T22:44:31.030Z,101670.28
2023-03-28T22:47:02.303Z,101672.97
2023-03-28T22:49:30.078Z,101659.09
2023-03-28T22:52:01.835Z,101658.38
2023-03-28T22:54:32.134Z,101651.69
2023-03-28T22:57:00.848Z,101648.97
2023-03-28T22:59:28.760Z,101657.63
2023-03-28T23:01:56.858Z,101652.28
2023-03-28T23:04:24.738Z,101649.91
2023-03-28T23:06:52.773Z,101636.81
2023-03-28T23:09:20.996Z,101642.34
2023-03-28T23:11:50.119Z,101640.69
2023-03-28T23:14:17.754Z,101630.25
2023-03-28T23:16:45.867Z,101617.13
2023-03-28T23:19:13.643Z,101608.66
2023-03-28T23:21:41.595Z,101610.34
2023-03-28T23:24:09.836Z,101606.03
2023-03-28T23:26:37.584Z,101599.00
2023-03-28T23:29:06.989Z,101590.94
2023-03-28T23:31:34.771Z,101587.47
2023-03-28T23:34:02.447Z,101587.66
2023-03-28T23:36:30.204Z,101580.75
2023-03-28T23:38:58.408Z,101585.94
2023-03-28T23:41:26.454Z,101580.66
2023-03-28T23:43:54.210Z,101577.16
2023-03-28T23:46:23.993Z,101575.41
2023-03-28T23:48:51.965Z,101571.91
2023-03-28T23:51:19.644Z,101570.34
2023-03-28T23:53:47.319Z,101558.31
2023-03-28T23:56:15.466Z,101563.63
2023-03-28T23:58:43.213Z,101558.44
